createdAt,value
2022-08-11T00:01:49.407Z,17.35
2022-08-11T00:04:39.420Z,17.31
2022-08-11T00:07:23.820Z,17.28
2022-08-11T00:10:12.353Z,17.24
2022-08-11T00:12:57.914Z,17.22
2022-08-11T00:15:46.259Z,17.18
2022-08-11T00:18:41.411Z,17.13
2022-08-11T00:21:54.761Z,17.11
2022-08-11T00:24:34.642Z,17.06
2022-08-11T00:27:39.514Z,16.97
2022-08-11T00:30:22.955Z,16.92
2022-08-11T00:33:08.598Z,16.88
2022-08-11T00:35:56.938Z,16.82
2022-08-11T00:38:44.679Z,16.75
2022-08-11T00:41:35.434Z,16.67
2022-08-11T00:44:43.142Z,16.62
2022-08-11T00:47:42.802Z,16.55
2022-08-11T00:50:38.083Z,16.44
2022-08-11T00:53:40.508Z,16.35
2022-08-11T00:56:59.551Z,16.28
2022-08-11T01:00:05.251Z,16.24
2022-08-11T01:03:07.602Z,16.19
2022-08-11T01:06:08.218Z,16.12
2022-08-11T01:09:35.706Z,16.05
2022-08-11T01:12:40.299Z,16.03
2022-08-11T01:16:11.400Z,15.98
2022-08-11T01:19:29.186Z,15.94
2022-08-11T01:22:41.324Z,15.89
2022-08-11T01:25:57.934Z,15.87
2022-08-11T01:29:29.208Z,15.86
2022-08-11T01:32:37.732Z,15.82
2022-08-11T01:35:45.743Z,15.75
2022-08-11T01:38:45.508Z,15.70
2022-08-11T01:42:00.921Z,15.63
2022-08-11T01:45:08.215Z,15.62
2022-08-11T01:48:03.509Z,15.58
2022-08-11T01:51:09.817Z,15.58
2022-08-11T01:54:06.291Z,15.51
2022-08-11T01:57:02.845Z,15.55
2022-08-11T01:59:50.445Z,15.57
2022-08-11T02:02:50.110Z,15.61
2022-08-11T02:06:01.361Z,15.58
2022-08-11T02:08:56.111Z,15.56
2022-08-11T02:11:41.146Z,15.53
2022-08-11T02:14:32.746Z,15.45
2022-08-11T02:17:20.329Z,15.42
2022-08-11T02:20:29.163Z,15.38
2022-08-11T02:24:07.247Z,15.33
2022-08-11T02:26:51.485Z,15.31
2022-08-11T02:29:43.505Z,15.28
2022-08-11T02:32:50.154Z,15.25
2022-08-11T02:35:42.859Z,15.21
2022-08-11T02:38:32.264Z,15.16
2022-08-11T02:41:42.108Z,15.10
2022-08-11T02:44:35.432Z,15.05
2022-08-11T02:47:43.268Z,15.00
2022-08-11T02:50:31.255Z,14.95
2022-08-11T02:53:25.145Z,14.91
2022-08-11T02:56:15.242Z,14.87
2022-08-11T02:59:24.713Z,14.89
2022-08-11T03:02:16.462Z,14.89
2022-08-11T03:05:13.925Z,14.88
2022-08-11T03:08:12.568Z,14.90
2022-08-11T03:11:23.946Z,14.91
2022-08-11T03:14:35.438Z,14.90
2022-08-11T03:17:30.657Z,14.89
2022-08-11T03:20:38.040Z,14.88
2022-08-11T03:23:31.002Z,14.83
2022-08-11T03:26:24.313Z,14.77
2022-08-11T03:29:18.261Z,14.74
2022-08-11T03:32:14.158Z,14.75
2022-08-11T03:35:01.571Z,14.74
2022-08-11T03:37:52.904Z,14.73
2022-08-11T03:41:06.666Z,14.70
2022-08-11T03:44:26.095Z,14.68
2022-08-11T03:47:38.470Z,14.67
2022-08-11T03:50:51.847Z,14.70
2022-08-11T03:54:04.936Z,14.70
2022-08-11T03:57:30.630Z,14.71
2022-08-11T04:00:51.155Z,14.78
2022-08-11T04:04:13.153Z,14.79
2022-08-11T04:07:38.828Z,14.80
2022-08-11T04:10:59.569Z,14.87
2022-08-11T04:14:30.609Z,14.88
2022-08-11T04:17:50.162Z,14.94
2022-08-11T04:20:50.747Z,14.98
2022-08-11T04:24:13.032Z,15.02
2022-08-11T04:27:48.107Z,15.07
2022-08-11T04:30:48.721Z,15.13
2022-08-11T04:34:01.043Z,15.17
2022-08-11T04:37:28.901Z,15.18
2022-08-11T04:40:52.067Z,15.27
2022-08-11T04:44:28.675Z,15.32
2022-08-11T04:48:06.402Z,15.41
2022-08-11T04:51:27.090Z,15.50
2022-08-11T04:54:43.226Z,15.57
2022-08-11T04:57:55.975Z,15.55
2022-08-11T05:01:09.809Z,15.53
2022-08-11T05:04:31.450Z,15.51
2022-08-11T05:07:49.300Z,15.51
2022-08-11T05:10:49.316Z,15.57
2022-08-11T05:13:52.702Z,15.61
2022-08-11T05:17:07.016Z,15.58
2022-08-11T05:20:07.881Z,15.64
2022-08-11T05:23:10.366Z,15.69
2022-08-11T05:26:47.077Z,15.76
2022-08-11T05:29:55.583Z,15.86
2022-08-11T05:33:02.645Z,16.02
2022-08-11T05:36:01.834Z,16.18
2022-08-11T05:39:13.562Z,16.31
2022-08-11T05:42:20.928Z,16.38
2022-08-11T05:45:42.575Z,16.45
2022-08-11T05:48:56.122Z,16.51
2022-08-11T05:52:05.258Z,16.62
2022-08-11T05:55:21.172Z,16.70
2022-08-11T05:58:06.853Z,16.79
2022-08-11T06:00:50.190Z,16.87
2022-08-11T06:03:58.780Z,16.96
2022-08-11T06:06:51.351Z,17.03
2022-08-11T06:09:35.902Z,17.13
2022-08-11T06:12:22.634Z,17.19
2022-08-11T06:15:08.469Z,17.26
2022-08-11T06:17:52.067Z,17.32
2022-08-11T06:20:47.650Z,17.39
2022-08-11T06:23:35.941Z,17.45
2022-08-11T06:26:20.513Z,17.54
2022-08-11T06:29:03.869Z,17.62
2022-08-11T06:31:54.666Z,17.67
2022-08-11T06:34:53.998Z,17.72
2022-08-11T06:37:59.064Z,17.77
2022-08-11T06:41:11.483Z,17.85
2022-08-11T06:44:06.774Z,17.90
2022-08-11T06:46:53.154Z,17.98
2022-08-11T06:49:56.584Z,18.04
2022-08-11T06:52:42.410Z,18.12
2022-08-11T06:55:56.952Z,18.17
2022-08-11T06:59:01.039Z,18.24
2022-08-11T07:01:52.214Z,18.28
2022-08-11T07:04:43.294Z,18.32
2022-08-11T07:08:35.769Z,18.39
2022-08-11T07:11:59.114Z,18.46
2022-08-11T07:15:09.257Z,18.51
2022-08-11T07:18:17.158Z,18.58
2022-08-11T07:22:00.440Z,18.67
2022-08-11T07:24:59.473Z,18.76
2022-08-11T07:28:07.052Z,18.85
2022-08-11T07:30:58.512Z,18.90
2022-08-11T07:34:05.856Z,18.97
2022-08-11T07:36:53.546Z,19.05
2022-08-11T07:39:40.245Z,19.09
2022-08-11T07:42:28.996Z,19.17
2022-08-11T07:45:30.466Z,19.26
2022-08-11T07:48:34.477Z,19.28
2022-08-11T07:51:37.992Z,19.34
2022-08-11T07:54:21.507Z,19.41
2022-08-11T07:58:13.576Z,19.49
2022-08-11T08:00:45.508Z,19.59
2022-08-11T08:03:55.298Z,19.68
2022-08-11T08:06:58.216Z,19.76
2022-08-11T08:09:59.736Z,19.81
2022-08-11T08:13:01.181Z,19.93
2022-08-11T08:16:02.370Z,20.01
2022-08-11T08:18:47.698Z,20.08
2022-08-11T08:21:31.986Z,20.17
2022-08-11T08:24:15.741Z,20.28
2022-08-11T08:26:59.383Z,20.37
2022-08-11T08:30:04.457Z,20.38
2022-08-11T08:32:47.610Z,20.45
2022-08-11T08:35:33.213Z,20.52
2022-08-11T08:38:16.624Z,20.56
2022-08-11T08:41:00.506Z,20.61
2022-08-11T08:43:48.563Z,20.60
2022-08-11T08:46:37.827Z,20.62
2022-08-11T08:49:24.874Z,20.67
2022-08-11T08:52:26.321Z,20.73
2022-08-11T08:55:19.813Z,20.83
2022-08-11T08:58:03.853Z,20.91
2022-08-11T09:00:50.801Z,20.99
2022-08-11T09:04:04.107Z,21.05
2022-08-11T09:06:43.072Z,21.10
2022-08-11T09:09:28.861Z,21.10
2022-08-11T09:12:13.754Z,21.20
2022-08-11T09:15:09.193Z,21.28
2022-08-11T09:17:55.063Z,21.36
2022-08-11T09:20:39.776Z,21.43
2022-08-11T09:27:00.285Z,21.58
2022-08-11T09:29:43.960Z,21.67
2022-08-11T09:32:29.319Z,21.84
2022-08-11T09:35:13.103Z,21.99
2022-08-11T09:38:15.403Z,22.24
2022-08-11T09:41:00.101Z,22.41
2022-08-11T09:44:04.586Z,22.60
2022-08-11T09:46:47.998Z,22.80
2022-08-11T09:49:34.746Z,23.00
2022-08-11T09:52:19.194Z,23.17
2022-08-11T09:55:11.215Z,23.42
2022-08-11T09:58:42.678Z,23.76
2022-08-11T10:01:28.153Z,24.22
2022-08-11T10:04:16.484Z,24.53
2022-08-11T10:07:04.124Z,24.82
2022-08-11T10:09:52.603Z,25.15
2022-08-11T10:12:39.267Z,25.33
2022-08-11T10:15:34.139Z,25.62
2022-08-11T10:18:49.246Z,25.86
2022-08-11T10:21:39.273Z,25.93
2022-08-11T10:24:40.252Z,26.16
2022-08-11T10:27:29.013Z,26.34
2022-08-11T10:30:46.124Z,26.35
2022-08-11T10:33:57.605Z,26.49
2022-08-11T10:36:47.063Z,26.78
2022-08-11T10:39:31.324Z,26.95
2022-08-11T10:42:55.336Z,27.08
2022-08-11T10:45:56.117Z,27.18
2022-08-11T10:48:41.394Z,27.26
2022-08-11T10:51:50.445Z,27.54
2022-08-11T10:54:54.480Z,27.58
2022-08-11T10:58:04.154Z,27.62
2022-08-11T11:00:50.530Z,27.75
2022-08-11T11:03:35.487Z,27.87
2022-08-11T11:06:28.299Z,28.04
2022-08-11T11:09:17.129Z,28.22
2022-08-11T11:12:22.207Z,28.17
2022-08-11T11:15:24.785Z,27.60
2022-08-11T11:18:11.578Z,27.50
2022-08-11T11:20:58.530Z,27.53
2022-08-11T11:23:51.083Z,27.63
2022-08-11T11:26:45.820Z,27.69
2022-08-11T11:29:53.127Z,27.69
2022-08-11T11:32:49.574Z,27.36
2022-08-11T11:35:45.416Z,27.18
2022-08-11T11:38:30.142Z,27.16
2022-08-11T11:41:26.777Z,27.32
2022-08-11T11:44:14.014Z,27.28
2022-08-11T11:46:58.057Z,26.99
2022-08-11T11:49:44.431Z,26.95
2022-08-11T11:52:28.750Z,27.10
2022-08-11T11:55:12.458Z,27.44
2022-08-11T11:58:18.508Z,27.77
2022-08-11T12:01:24.965Z,28.17
2022-08-11T12:04:09.364Z,28.54
2022-08-11T12:07:15.403Z,28.86
2022-08-11T12:09:59.470Z,28.92
2022-08-11T12:13:00.371Z,28.61
2022-08-11T12:16:31.229Z,28.57
2022-08-11T12:18:51.808Z,28.62
2022-08-11T12:21:37.643Z,28.69
2022-08-11T12:24:38.439Z,28.61
2022-08-11T12:27:24.892Z,28.38
2022-08-11T12:30:09.590Z,28.10
2022-08-11T12:32:54.491Z,27.99
2022-08-11T12:35:38.768Z,27.88
2022-08-11T12:38:41.985Z,27.80
2022-08-11T12:41:43.526Z,28.00
2022-08-11T12:44:46.686Z,28.12
2022-08-11T12:48:47.832Z,28.01
2022-08-11T12:51:21.075Z,27.98
2022-08-11T12:54:11.686Z,28.10
2022-08-11T12:57:36.227Z,28.06
2022-08-11T13:00:38.170Z,27.99
2022-08-11T13:03:40.654Z,28.01
2022-08-11T13:06:26.218Z,28.19
2022-08-11T13:09:12.383Z,28.64
2022-08-11T13:12:13.489Z,28.91
2022-08-11T13:14:57.268Z,29.22
2022-08-11T13:17:44.250Z,29.42
2022-08-11T13:20:28.157Z,29.60
2022-08-11T13:23:13.357Z,29.35
2022-08-11T13:25:57.396Z,29.42
2022-08-11T13:28:41.922Z,29.37
2022-08-11T13:31:24.932Z,29.43
2022-08-11T13:34:09.341Z,29.58
2022-08-11T13:36:55.687Z,29.77
2022-08-11T13:39:47.414Z,29.78
2022-08-11T13:42:31.391Z,29.48
2022-08-11T13:45:15.248Z,29.05
2022-08-11T13:48:00.382Z,28.60
2022-08-11T13:51:02.859Z,28.46
2022-08-11T13:53:46.300Z,28.54
2022-08-11T13:56:32.110Z,28.29
2022-08-11T13:59:16.770Z,28.11
2022-08-11T14:02:21.606Z,28.05
2022-08-11T14:05:11.575Z,27.86
2022-08-11T14:08:00.057Z,27.55
2022-08-11T14:10:43.777Z,27.33
2022-08-11T14:13:41.316Z,27.05
2022-08-11T14:16:31.755Z,26.77
2022-08-11T14:19:18.606Z,26.67
2022-08-11T14:22:10.155Z,26.54
2022-08-11T14:24:54.858Z,26.51
2022-08-11T14:28:30.610Z,26.58
2022-08-11T14:31:01.544Z,26.88
2022-08-11T14:34:00.973Z,27.24
2022-08-11T14:36:48.142Z,27.42
2022-08-11T14:39:36.103Z,27.63
2022-08-11T14:42:39.211Z,27.75
2022-08-11T14:45:57.885Z,27.97
2022-08-11T14:48:42.415Z,28.15
2022-08-11T14:51:27.503Z,28.37
2022-08-11T14:54:29.033Z,28.58
2022-08-11T14:57:12.931Z,28.35
2022-08-11T14:59:57.490Z,28.45
2022-08-11T15:02:55.200Z,28.54
2022-08-11T15:05:42.206Z,28.63
2022-08-11T15:08:55.864Z,28.60
2022-08-11T15:11:57.710Z,28.38
2022-08-11T15:14:58.435Z,28.43
2022-08-11T15:17:44.039Z,28.46
2022-08-11T15:20:46.624Z,28.43
2022-08-11T15:23:49.236Z,28.29
2022-08-11T15:26:56.452Z,28.24
2022-08-11T15:30:00.110Z,28.16
2022-08-11T15:33:03.086Z,28.15
2022-08-11T15:36:04.227Z,28.03
2022-08-11T15:38:55.833Z,27.78
2022-08-11T15:42:03.088Z,27.58
2022-08-11T15:45:09.836Z,27.39
2022-08-11T15:47:58.415Z,27.22
2022-08-11T15:50:53.324Z,27.06
2022-08-11T15:53:42.473Z,26.90
2022-08-11T15:56:30.292Z,26.73
2022-08-11T15:59:41.683Z,26.51
2022-08-11T16:02:46.468Z,26.33
2022-08-11T16:05:46.101Z,26.14
2022-08-11T16:08:35.654Z,25.92
2022-08-11T16:11:20.094Z,25.63
2022-08-11T16:14:25.097Z,25.45
2022-08-11T16:17:11.146Z,25.23
2022-08-11T16:19:57.707Z,25.02
2022-08-11T16:22:57.201Z,24.83
2022-08-11T16:27:04.431Z,24.56
2022-08-11T16:28:51.172Z,24.35
2022-08-11T16:31:38.516Z,24.14
2022-08-11T16:34:35.518Z,23.97
2022-08-11T16:37:37.625Z,23.75
2022-08-11T16:40:22.680Z,23.55
2022-08-11T16:43:26.172Z,23.35
2022-08-11T16:46:28.045Z,23.15
2022-08-11T16:49:18.026Z,23.03
2022-08-11T16:52:04.083Z,22.93
2022-08-11T16:54:47.724Z,22.89
2022-08-11T16:57:49.716Z,22.87
2022-08-11T17:00:34.531Z,22.83
2022-08-11T17:03:37.077Z,22.80
2022-08-11T17:06:40.294Z,22.72
2022-08-11T17:09:44.004Z,22.65
2022-08-11T17:12:47.790Z,22.63
2022-08-11T17:15:50.864Z,22.60
2022-08-11T17:18:41.294Z,22.61
2022-08-11T17:21:29.895Z,22.46
2022-08-11T17:24:14.407Z,22.36
2022-08-11T17:26:58.771Z,22.32
2022-08-11T17:29:54.084Z,22.27
2022-08-11T17:33:01.063Z,22.17
2022-08-11T17:35:44.787Z,22.10
2022-08-11T17:38:30.967Z,22.03
2022-08-11T17:41:33.562Z,21.94
2022-08-11T17:44:34.259Z,21.85
2022-08-11T17:47:36.471Z,21.80
2022-08-11T17:50:21.013Z,21.76
2022-08-11T17:53:33.342Z,21.66
2022-08-11T17:56:37.465Z,21.57
2022-08-11T17:59:39.067Z,21.50
2022-08-11T18:02:42.371Z,21.42
2022-08-11T18:05:29.095Z,21.34
2022-08-11T18:08:31.693Z,21.28
2022-08-11T18:12:06.921Z,21.18
2022-08-11T18:14:56.713Z,21.02
2022-08-11T18:17:59.184Z,20.95
2022-08-11T18:20:59.642Z,20.85
2022-08-11T18:24:00.238Z,20.72
2022-08-11T18:27:04.297Z,20.64
2022-08-11T18:30:08.588Z,20.63
2022-08-11T18:36:39.618Z,20.64
2022-08-11T18:39:43.665Z,20.61
2022-08-11T18:43:00.190Z,20.61
2022-08-11T18:46:06.187Z,20.62
2022-08-11T18:49:15.646Z,20.56
2022-08-11T18:52:17.918Z,20.46
2022-08-11T18:55:22.129Z,20.44
2022-08-11T18:58:28.899Z,20.37
2022-08-11T19:01:31.817Z,20.28
2022-08-11T19:04:37.811Z,20.20
2022-08-11T19:07:39.512Z,20.17
2022-08-11T19:10:40.575Z,20.14
2022-08-11T19:13:45.122Z,20.09
2022-08-11T19:16:47.816Z,20.07
2022-08-11T19:19:50.796Z,20.01
2022-08-11T19:22:52.787Z,19.95
2022-08-11T19:25:54.255Z,19.91
2022-08-11T19:28:58.124Z,19.87
2022-08-11T19:31:59.660Z,19.84
2022-08-11T19:35:00.534Z,19.81
2022-08-11T19:38:02.137Z,19.79
2022-08-11T19:41:03.435Z,19.72
2022-08-11T19:44:06.663Z,19.70
2022-08-11T19:47:08.251Z,19.66
2022-08-11T19:50:10.636Z,19.63
2022-08-11T19:53:17.686Z,19.58
2022-08-11T19:56:19.481Z,19.53
2022-08-11T19:59:22.070Z,19.48
2022-08-11T20:02:23.411Z,19.43
2022-08-11T20:05:26.147Z,19.31
2022-08-11T20:08:27.595Z,19.22
2022-08-11T20:11:30.247Z,19.13
2022-08-11T20:14:32.893Z,19.00
2022-08-11T20:17:35.415Z,18.94
2022-08-11T20:20:37.301Z,18.90
2022-08-11T20:23:39.271Z,18.81
2022-08-11T20:26:41.219Z,18.71
2022-08-11T20:29:48.420Z,18.62
2022-08-11T20:32:49.174Z,18.56
2022-08-11T20:35:51.699Z,18.48
2022-08-11T20:38:55.310Z,18.45
2022-08-11T20:41:59.072Z,18.38
2022-08-11T20:45:03.643Z,18.30
2022-08-11T20:48:05.330Z,18.27
2022-08-11T20:51:08.878Z,18.19
2022-08-11T20:54:09.443Z,18.15
2022-08-11T20:57:12.754Z,18.09
2022-08-11T21:00:17.990Z,18.03
2022-08-11T21:03:44.824Z,18.00
2022-08-11T21:06:55.347Z,17.98
2022-08-11T21:10:09.454Z,17.98
2022-08-11T21:13:25.728Z,17.92
2022-08-11T21:16:35.142Z,17.85
2022-08-11T21:20:01.201Z,17.76
2022-08-11T21:23:06.319Z,17.72
2022-08-11T21:26:12.665Z,17.64
2022-08-11T21:29:16.537Z,17.61
2022-08-11T21:32:19.851Z,17.52
2022-08-11T21:35:21.160Z,17.47
2022-08-11T21:38:23.367Z,17.43
2022-08-11T21:41:25.408Z,17.40
2022-08-11T21:44:27.292Z,17.39
2022-08-11T21:47:43.537Z,17.38
2022-08-11T21:50:44.862Z,17.38
2022-08-11T21:53:46.216Z,17.36
2022-08-11T21:56:48.823Z,17.33
2022-08-11T21:59:56.893Z,17.31
2022-08-11T22:02:59.822Z,17.27
2022-08-11T22:06:02.496Z,17.15
2022-08-11T22:09:03.440Z,17.09
2022-08-11T22:12:34.539Z,17.06
2022-08-11T22:15:26.245Z,17.00
2022-08-11T22:18:27.951Z,16.93
2022-08-11T22:22:01.687Z,16.89
2022-08-11T22:24:51.792Z,16.88
2022-08-11T22:27:52.426Z,16.87
2022-08-11T22:30:53.103Z,16.85
2022-08-11T22:34:03.001Z,16.82
2022-08-11T22:37:06.719Z,16.79
2022-08-11T22:40:08.642Z,16.74
2022-08-11T22:43:09.143Z,16.69
2022-08-11T22:46:10.345Z,16.66
2022-08-11T22:49:13.890Z,16.65
2022-08-11T22:52:17.017Z,16.66
2022-08-11T22:55:18.598Z,16.66
2022-08-11T22:58:20.970Z,16.62
2022-08-11T23:01:21.621Z,16.54
2022-08-11T23:04:25.262Z,16.47
2022-08-11T23:07:49.804Z,16.48
2022-08-11T23:10:48.491Z,16.49
2022-08-11T23:13:50.603Z,16.45
2022-08-11T23:16:51.415Z,16.41
2022-08-11T23:20:11.660Z,16.34
2022-08-11T23:23:15.204Z,16.21
2022-08-11T23:26:16.457Z,16.08
2022-08-11T23:29:18.192Z,16.04
2022-08-11T23:32:20.740Z,16.02
2022-08-11T23:35:38.701Z,15.97
2022-08-11T23:38:41.376Z,15.98
2022-08-11T23:41:41.825Z,15.95
2022-08-11T23:44:42.327Z,15.90
2022-08-11T23:47:50.919Z,15.88
2022-08-11T23:50:53.944Z,15.83
2022-08-11T23:53:57.197Z,15.77
2022-08-11T23:56:57.992Z,15.78
2022-08-11T23:59:58.485Z,15.84
